Time;durP1;ratioP1;P1;durP2;ratioP2;P2;SDS_P1;SDS_P2;PMS_P1;PMS_P2;Temp;Humidity;BMP_temperature;BMP_pressure;BME280_temperature;BME280_humidity;BME280_pressure;Samples;Min_cycle;Max_cycle;Signal;HPM_P1;HPM_P2
2022/06/09 00:01:31;;;;;;;;;;;;;;;13.28;80.41;97861.69;6214435;23;20367;-77
2022/06/09 00:04:02;;;;;;;;;;;;;;;13.35;80.36;97870.69;6239336;23;19920;-77
2022/06/09 00:06:31;;;;;;;;;;;;;;;13.28;79.98;97871.59;6239777;23;19920;-77
2022/06/09 00:09:00;;;;;;;;;;;;;;;13.38;80.34;97866.81;6239534;23;20259;-77
2022/06/09 00:11:26;;;;;;;;;;;;;;;13.41;79.96;97873.69;6214513;23;19978;-77
2022/06/09 00:13:52;;;;;;;;;;;;;;;13.33;79.89;97870.03;6214052;23;20332;-76
2022/06/09 00:16:18;;;;;;;;;;;;;;;13.36;80.16;97875.06;6239335;23;19920;-77
2022/06/09 00:18:43;;;;;;;;;;;;;;;13.46;80.04;97869.44;6215157;23;19927;-77
2022/06/09 00:21:10;;;;;;;;;;;;;;;13.55;79.67;97862.19;6217654;23;20275;-77
2022/06/09 00:23:36;;;;;;;;;;;;;;;13.53;79.66;97858.84;6215959;23;20335;-77
2022/06/09 00:26:01;;;;;;;;;;;;;;;13.55;79.42;97856.81;6217502;23;19920;-77
2022/06/09 00:28:28;;;;;;;;;;;;;;;13.45;79.80;97856.22;6215919;23;19952;-77
2022/06/09 00:30:54;;;;;;;;;;;;;;;13.47;79.57;97855.03;6215753;23;20249;-76
2022/06/09 00:33:19;;;;;;;;;;;;;;;13.54;79.54;97861.38;6240920;23;19920;-78
2022/06/09 00:35:45;;;;;;;;;;;;;;;13.59;79.57;97864.34;6215764;23;20432;-77
2022/06/09 00:38:11;;;;;;;;;;;;;;;13.58;79.43;97862.69;6215787;23;20002;-77
2022/06/09 00:40:37;;;;;;;;;;;;;;;13.60;79.20;97854.44;6241224;23;19947;-77
2022/06/09 00:43:03;;;;;;;;;;;;;;;13.56;79.23;97869.22;6215545;23;19924;-77
2022/06/09 00:45:42;;;;;;;;;;;;;;;13.61;79.05;97874.88;6240984;23;20002;-77
2022/06/09 00:48:07;;;;;;;;;;;;;;;13.53;78.97;97874.94;6190646;23;20347;-76
2022/06/09 00:50:35;;;;;;;;;;;;;;;13.54;79.53;97876.59;6215145;23;19920;-76
2022/06/09 00:53:02;;;;;;;;;;;;;;;13.76;79.12;97874.97;6217405;23;19943;-77
2022/06/09 00:55:30;;;;;;;;;;;;;;;13.68;78.64;97873.16;6240932;23;19919;-76
2022/06/09 00:58:09;;;;;;;;;;;;;;;13.59;78.71;97874.25;6217047;23;19930;-76
2022/06/09 01:00:45;;;;;;;;;;;;;;;13.59;78.71;97880.44;6215855;23;20410;-76
2022/06/09 01:03:11;;;;;;;;;;;;;;;13.63;78.56;97870.19;6217152;23;20363;-76
2022/06/09 01:05:38;;;;;;;;;;;;;;;13.57;78.73;97876.25;6215413;23;19998;-76
2022/06/09 01:08:04;;;;;;;;;;;;;;;13.56;78.88;97871.91;6215527;23;19947;-76
2022/06/09 01:10:30;;;;;;;;;;;;;;;13.63;78.77;97872.03;6190113;23;19920;-77
2022/06/09 01:12:56;;;;;;;;;;;;;;;13.50;79.08;97868.09;6215465;23;19920;-78
2022/06/09 01:15:24;;;;;;;;;;;;;;;13.51;79.25;97867.09;6240603;23;19920;-77
2022/06/09 01:17:56;;;;;;;;;;;;;;;13.63;78.68;97864.81;6217114;23;19979;-77
2022/06/09 01:20:25;;;;;;;;;;;;;;;13.68;78.77;97869.66;6216922;23;19920;-76
2022/06/09 01:23:10;;;;;;;;;;;;;;;13.61;78.86;97861.47;6215049;23;20006;-76
2022/06/09 01:25:36;;;;;;;;;;;;;;;13.58;78.93;97856.47;6190460;23;19927;-76
2022/06/09 01:28:01;;;;;;;;;;;;;;;13.58;79.09;97859.16;6216784;23;19919;-77
2022/06/09 01:30:46;;;;;;;;;;;;;;;13.52;79.05;97862.53;6214729;23;20227;-77
2022/06/09 01:33:12;;;;;;;;;;;;;;;13.65;78.72;97865.47;6216830;23;19947;-77
2022/06/09 01:36:01;;;;;;;;;;;;;;;13.57;79.09;97854.78;6216663;23;19942;-77
2022/06/09 01:38:26;;;;;;;;;;;;;;;13.56;79.19;97861.19;6196068;23;20237;-77
2022/06/09 01:40:52;;;;;;;;;;;;;;;13.51;79.17;97850.16;6215081;23;19920;-77
2022/06/09 01:43:18;;;;;;;;;;;;;;;13.67;79.17;97857.25;6243890;23;19930;-77
2022/06/09 01:45:44;;;;;;;;;;;;;;;13.52;79.60;97857.19;6246780;23;20335;-77
2022/06/09 01:48:13;;;;;;;;;;;;;;;13.49;79.75;97870.94;6219897;23;19919;-77
2022/06/09 01:51:05;;;;;;;;;;;;;;;13.50;79.73;97865.41;6219907;23;19927;-78
2022/06/09 01:53:36;;;;;;;;;;;;;;;13.35;80.32;97870.69;6215102;23;19969;-76
2022/06/09 01:56:18;;;;;;;;;;;;;;;13.38;80.27;97871.34;6219721;23;19947;-77
2022/06/09 01:58:49;;;;;;;;;;;;;;;13.35;80.42;97881.44;6195159;23;20009;-76
2022/06/09 02:01:17;;;;;;;;;;;;;;;13.34;80.68;97877.06;6194685;23;20343;-76
2022/06/09 02:03:45;;;;;;;;;;;;;;;13.31;81.00;97874.75;6245180;23;19920;-77
2022/06/09 02:06:12;;;;;;;;;;;;;;;13.42;80.89;97878.84;6194682;23;20383;-78
2022/06/09 02:08:38;;;;;;;;;;;;;;;13.41;80.52;97876.38;6219866;23;20006;-77
2022/06/09 02:11:09;;;;;;;;;;;;;;;13.38;80.85;97888.28;6194696;23;19919;-77
2022/06/09 02:13:39;;;;;;;;;;;;;;;13.35;80.92;97872.53;6170286;23;20347;-76
2022/06/09 02:16:06;;;;;;;;;;;;;;;13.48;80.90;97882.69;6220049;23;19919;-77
2022/06/09 02:18:35;;;;;;;;;;;;;;;13.58;80.40;97881.47;6219772;23;19926;-76
2022/06/09 02:21:09;;;;;;;;;;;;;;;13.60;80.41;97875.91;6194673;23;19919;-76
2022/06/09 02:23:36;;;;;;;;;;;;;;;13.62;80.03;97879.28;6194792;23;20083;-77
2022/06/09 02:26:02;;;;;;;;;;;;;;;13.78;79.78;97879.16;6194744;23;19919;-77
2022/06/09 02:28:28;;;;;;;;;;;;;;;13.79;79.24;97885.34;6194532;23;20014;-78
2022/06/09 02:30:54;;;;;;;;;;;;;;;13.92;79.00;97884.78;6219146;23;19981;-78
2022/06/09 02:33:20;;;;;;;;;;;;;;;14.00;78.91;97879.31;6219635;23;19954;-78
2022/06/09 02:35:46;;;;;;;;;;;;;;;14.25;78.94;97879.94;6194542;23;20331;-78
2022/06/09 02:38:12;;;;;;;;;;;;;;;14.31;78.12;97885.44;6194539;23;19920;-79
2022/06/09 02:40:38;;;;;;;;;;;;;;;14.42;77.91;97892.22;6218521;23;20236;-79
2022/06/09 02:43:03;;;;;;;;;;;;;;;14.38;77.44;97895.47;6219729;23;19959;-77
2022/06/09 02:45:29;;;;;;;;;;;;;;;14.49;77.47;97898.56;6245917;23;19920;-79
2022/06/09 02:47:55;;;;;;;;;;;;;;;14.55;77.13;97902.38;6219329;23;19926;-77
2022/06/09 02:50:21;;;;;;;;;;;;;;;14.67;76.60;97900.91;6193946;23;19997;-79
2022/06/09 02:52:47;;;;;;;;;;;;;;;14.96;76.61;97893.88;6247986;23;19919;-91
2022/06/09 02:55:14;;;;;;;;;;;;;;;15.19;75.31;97897.28;6195185;23;20347;-78
2022/06/09 02:57:39;;;;;;;;;;;;;;;15.26;74.39;97894.66;6246509;23;19926;-78
2022/06/09 03:00:06;;;;;;;;;;;;;;;15.56;73.82;97906.22;6219624;23;20454;-79
2022/06/09 03:02:33;;;;;;;;;;;;;;;15.49;73.20;97905.31;6194233;23;20236;-79
2022/06/09 03:04:59;;;;;;;;;;;;;;;15.44;73.23;97903.19;6197644;23;19919;-78
2022/06/09 03:07:25;;;;;;;;;;;;;;;15.57;73.29;97902.53;6247776;23;19927;-90
2022/06/09 03:09:51;;;;;;;;;;;;;;;15.58;73.08;97900.66;6195391;23;20006;-79
2022/06/09 03:12:17;;;;;;;;;;;;;;;15.54;73.06;97908.28;6246225;23;20013;-79
2022/06/09 03:14:43;;;;;;;;;;;;;;;15.59;73.09;97911.22;6197751;23;19969;-80
2022/06/09 03:17:09;;;;;;;;;;;;;;;15.65;71.79;97915.03;6198633;23;19919;-77
2022/06/09 03:19:35;;;;;;;;;;;;;;;15.81;71.79;97925.59;6246171;23;20259;-79
2022/06/09 03:22:01;;;;;;;;;;;;;;;15.85;71.74;97915.28;6220281;23;20051;-81
2022/06/09 03:24:27;;;;;;;;;;;;;;;16.10;71.43;97918.41;6220216;23;20263;-77
2022/06/09 03:26:53;;;;;;;;;;;;;;;16.04;69.87;97917.34;6218654;23;19920;-76
2022/06/09 03:29:19;;;;;;;;;;;;;;;16.19;70.00;97930.75;6219617;23;19959;-78
2022/06/09 03:31:48;;;;;;;;;;;;;;;16.39;69.33;97923.66;6218352;22;20306;-80
2022/06/09 03:34:14;;;;;;;;;;;;;;;16.54;68.09;97920.88;6192678;23;19920;-78
2022/06/09 03:36:40;;;;;;;;;;;;;;;16.42;67.69;97928.69;6217701;23;19921;-78
2022/06/09 03:39:06;;;;;;;;;;;;;;;16.22;67.66;97933.06;6243930;23;20299;-80
2022/06/09 03:41:32;;;;;;;;;;;;;;;16.35;67.68;97933.19;6194623;23;20432;-78
2022/06/09 03:43:57;;;;;;;;;;;;;;;16.24;67.53;97937.22;6220245;23;19951;-79
2022/06/09 03:46:23;;;;;;;;;;;;;;;16.06;67.13;97934.16;6220467;23;20022;-81
2022/06/09 03:48:49;;;;;;;;;;;;;;;15.97;67.77;97951.47;6202445;23;20357;-78
2022/06/09 03:51:14;;;;;;;;;;;;;;;15.63;67.75;97958.31;6248759;23;20332;-80
2022/06/09 03:53:40;;;;;;;;;;;;;;;15.59;68.09;97948.94;6248180;23;20248;-80
2022/06/09 03:56:12;;;;;;;;;;;;;;;15.56;68.72;97970.84;6198629;23;19927;-81
2022/06/09 03:58:37;;;;;;;;;;;;;;;15.54;66.57;97959.47;6224334;23;20368;-80
2022/06/09 04:01:03;;;;;;;;;;;;;;;15.51;66.90;97962.53;6223065;23;19926;-80
2022/06/09 04:03:30;;;;;;;;;;;;;;;15.39;67.22;97972.09;6196793;23;20247;-79
2022/06/09 04:05:56;;;;;;;;;;;;;;;15.19;67.51;97961.88;6196118;23;19919;-78
2022/06/09 04:08:22;;;;;;;;;;;;;;;14.91;68.02;97966.25;6223435;23;20362;-80
2022/06/09 04:10:48;;;;;;;;;;;;;;;14.97;68.85;97960.97;6197194;23;19919;-80
2022/06/09 04:13:15;;;;;;;;;;;;;;;15.06;68.95;97967.09;6248957;23;19920;-79
2022/06/09 04:15:42;;;;;;;;;;;;;;;15.02;67.64;97972.00;6221992;23;19919;-77
2022/06/09 04:18:08;;;;;;;;;;;;;;;14.99;67.14;97974.22;6196181;23;19926;-82
2022/06/09 04:20:34;;;;;;;;;;;;;;;14.93;67.10;97983.88;6172399;23;20327;-83
2022/06/09 04:23:00;;;;;;;;;;;;;;;15.05;65.15;97978.88;6197639;23;20006;-85
2022/06/09 04:25:25;;;;;;;;;;;;;;;15.14;65.46;97982.31;6197378;23;19926;-81
2022/06/09 04:27:51;;;;;;;;;;;;;;;15.47;65.42;97982.78;6247101;23;19923;-80
2022/06/09 04:30:17;;;;;;;;;;;;;;;15.44;64.39;97981.28;6221996;23;19919;-78
2022/06/09 04:32:42;;;;;;;;;;;;;;;15.46;65.06;97983.81;6248105;23;19920;-79
2022/06/09 04:35:08;;;;;;;;;;;;;;;15.60;63.63;97985.63;6220651;23;19954;-80
2022/06/09 04:40:18;;;;;;;;;;;;;;;16.01;62.13;97987.78;6220660;23;19939;-79
2022/06/09 04:42:44;;;;;;;;;;;;;;;16.11;61.55;97990.19;6244925;23;20252;-80
2022/06/09 04:45:10;;;;;;;;;;;;;;;16.32;61.98;97986.66;6220154;23;19930;-79
2022/06/09 04:47:36;;;;;;;;;;;;;;;16.45;61.73;97981.41;6220961;23;19927;-79
2022/06/09 04:50:02;;;;;;;;;;;;;;;16.25;62.17;97984.75;6247356;23;19919;-79
2022/06/09 04:52:29;;;;;;;;;;;;;;;15.66;62.89;97998.38;6247308;23;19919;-80
2022/06/09 04:54:54;;;;;;;;;;;;;;;15.53;63.87;97992.78;6220084;23;20014;-80
2022/06/09 04:57:20;;;;;;;;;;;;;;;15.41;63.79;98015.81;6247015;23;19919;-80
2022/06/09 04:59:46;;;;;;;;;;;;;;;15.11;63.48;98009.59;6220517;23;19919;-80
2022/06/09 05:02:12;;;;;;;;;;;;;;;15.20;63.92;98003.94;6221110;23;19920;-80
2022/06/09 05:04:38;;;;;;;;;;;;;;;15.11;64.66;98005.03;6221173;23;19989;-78
2022/06/09 05:07:03;;;;;;;;;;;;;;;15.23;64.31;98006.28;6220646;23;20335;-80
2022/06/09 05:09:29;;;;;;;;;;;;;;;15.25;64.35;98011.47;6220423;23;19959;-80
2022/06/09 05:11:55;;;;;;;;;;;;;;;15.45;64.25;98014.41;6247316;23;19919;-80
2022/06/09 05:14:20;;;;;;;;;;;;;;;15.49;63.98;98023.78;6220304;23;19920;-81
2022/06/09 05:16:46;;;;;;;;;;;;;;;15.68;64.26;98022.41;6247263;23;19924;-80
2022/06/09 05:19:12;;;;;;;;;;;;;;;15.57;64.30;98025.56;6220721;23;19919;-81
2022/06/09 05:21:37;;;;;;;;;;;;;;;15.40;64.39;98031.16;6220802;23;19920;-81
2022/06/09 05:24:04;;;;;;;;;;;;;;;15.41;64.87;98034.66;6220227;23;19942;-80
2022/06/09 05:26:29;;;;;;;;;;;;;;;15.40;64.22;98035.69;6195324;23;19926;-80
2022/06/09 05:28:55;;;;;;;;;;;;;;;15.50;64.61;98033.56;6246972;23;19945;-80
2022/06/09 05:31:21;;;;;;;;;;;;;;;15.79;63.99;98025.47;6220037;23;20233;-80
2022/06/09 05:33:47;;;;;;;;;;;;;;;15.95;63.85;98029.00;6194833;23;19920;-79
2022/06/09 05:36:13;;;;;;;;;;;;;;;16.15;62.74;98019.28;6194993;23;19924;-81
2022/06/09 05:46:52;;;;;;;;;;;;;;;16.89;60.45;98026.25;6246972;23;19919;-80
2022/06/09 05:49:18;;;;;;;;;;;;;;;16.74;60.97;98026.31;6245288;23;20002;-81
2022/06/09 05:51:44;;;;;;;;;;;;;;;16.84;60.48;98023.28;6244950;23;19973;-80
2022/06/09 05:54:10;;;;;;;;;;;;;;;16.75;61.14;98028.81;6169737;23;19919;-81
2022/06/09 05:56:36;;;;;;;;;;;;;;;16.61;61.65;98024.28;6220164;23;19931;-81
2022/06/09 05:59:01;;;;;;;;;;;;;;;16.97;61.08;98031.50;6194796;23;20302;-81
2022/06/09 06:01:27;;;;;;;;;;;;;;;16.68;60.47;98041.38;6219955;23;19931;-81
2022/06/09 06:03:53;;;;;;;;;;;;;;;16.63;61.08;98038.44;6244931;23;19926;-80
2022/06/09 06:06:40;;;;;;;;;;;;;;;16.96;60.49;98033.38;6244944;23;19919;-81
2022/06/09 06:09:06;;;;;;;;;;;;;;;17.08;59.51;98036.38;6245942;23;19920;-82
2022/06/09 06:11:33;;;;;;;;;;;;;;;17.25;59.75;98036.88;6194618;23;19935;-80
2022/06/09 06:13:59;;;;;;;;;;;;;;;17.71;58.95;98033.63;6219726;23;19920;-80
2022/06/09 06:16:25;;;;;;;;;;;;;;;17.85;59.54;98032.69;6246264;23;19920;-81
2022/06/09 06:18:51;;;;;;;;;;;;;;;17.73;57.50;98029.69;6219629;23;20009;-80
2022/06/09 06:21:17;;;;;;;;;;;;;;;17.73;57.52;98035.09;6219677;23;20003;-80
2022/06/09 06:23:43;;;;;;;;;;;;;;;17.89;56.37;98028.53;6246361;23;19919;-80
2022/06/09 06:26:09;;;;;;;;;;;;;;;17.98;56.38;98031.94;6218978;23;19990;-80
2022/06/09 06:28:35;;;;;;;;;;;;;;;18.01;55.56;98023.38;6219337;23;19958;-80
2022/06/09 06:31:00;;;;;;;;;;;;;;;18.15;55.45;98025.09;6194197;23;20361;-80
2022/06/09 06:33:27;;;;;;;;;;;;;;;18.23;56.22;98036.78;6218921;23;19964;-80
2022/06/09 06:35:53;;;;;;;;;;;;;;;17.56;56.50;98036.44;6169278;23;19919;-80
2022/06/09 06:38:19;;;;;;;;;;;;;;;17.54;57.27;98037.69;6194398;23;19977;-79
2022/06/09 06:40:44;;;;;;;;;;;;;;;17.60;56.85;98034.19;6219545;23;20255;-80
2022/06/09 06:43:10;;;;;;;;;;;;;;;17.96;55.46;98028.56;6194798;23;19931;-81
2022/06/09 06:45:36;;;;;;;;;;;;;;;17.77;54.39;98032.03;6221087;23;20436;-84
2022/06/09 06:48:03;;;;;;;;;;;;;;;17.53;55.19;98044.97;6219658;23;19926;-85
2022/06/09 06:50:29;;;;;;;;;;;;;;;17.20;55.79;98053.69;6221018;23;19926;-82
2022/06/09 06:52:55;;;;;;;;;;;;;;;16.75;57.41;98057.66;6219690;23;19920;-80
2022/06/09 06:55:22;;;;;;;;;;;;;;;16.83;57.39;98054.00;6219207;23;19941;-84
2022/06/09 06:57:48;;;;;;;;;;;;;;;17.07;57.28;98050.88;6246739;23;19946;-84
2022/06/09 07:00:18;;;;;;;;;;;;;;;17.46;55.82;98052.19;6219112;23;20030;-80
2022/06/09 07:02:45;;;;;;;;;;;;;;;17.83;55.44;98055.56;6194428;23;19919;-81
2022/06/09 07:05:10;;;;;;;;;;;;;;;17.73;56.77;98059.41;6219481;23;19919;-87
2022/06/09 07:07:38;;;;;;;;;;;;;;;17.89;55.32;98060.16;6219681;23;20026;-83
2022/06/09 07:10:03;;;;;;;;;;;;;;;18.02;55.35;98054.00;6245937;23;20339;-83
2022/06/09 07:12:29;;;;;;;;;;;;;;;18.25;54.22;98053.66;6218919;23;19984;-82
2022/06/09 07:14:55;;;;;;;;;;;;;;;18.61;52.90;98059.56;6219597;23;20185;-81
2022/06/09 07:17:21;;;;;;;;;;;;;;;18.91;52.90;98051.09;6219089;23;19920;-81
2022/06/09 07:19:46;;;;;;;;;;;;;;;18.87;52.43;98052.53;6245619;23;20006;-79
2022/06/09 07:22:12;;;;;;;;;;;;;;;18.96;52.61;98051.31;6194084;23;20023;-80
2022/06/09 07:24:38;;;;;;;;;;;;;;;19.15;51.48;98064.00;6219135;23;20240;-84
2022/06/09 07:27:04;;;;;;;;;;;;;;;19.16;51.84;98068.38;6219091;23;19919;-80
2022/06/09 07:29:29;;;;;;;;;;;;;;;19.18;51.94;98062.75;6247615;23;19969;-80
2022/06/09 07:31:55;;;;;;;;;;;;;;;18.92;51.30;98067.13;6221156;23;19951;-77
2022/06/09 07:34:21;;;;;;;;;;;;;;;18.93;51.86;98065.25;6221375;23;19920;-80
2022/06/09 07:36:47;;;;;;;;;;;;;;;18.97;52.23;98062.97;6246863;23;19932;-82
2022/06/09 07:39:13;;;;;;;;;;;;;;;18.97;52.56;98063.81;6221435;23;19920;-80
2022/06/09 07:41:39;;;;;;;;;;;;;;;19.08;51.79;98060.47;6247752;23;19942;-82
2022/06/09 07:44:06;;;;;;;;;;;;;;;19.50;51.92;98047.50;6218813;23;20336;-78
2022/06/09 07:46:33;;;;;;;;;;;;;;;19.69;50.06;98061.25;6245778;23;19919;-78
2022/06/09 07:48:59;;;;;;;;;;;;;;;19.52;50.74;98072.53;6193929;23;19919;-78
2022/06/09 07:51:25;;;;;;;;;;;;;;;19.27;50.77;98066.09;6193891;23;19919;-78
2022/06/09 07:53:51;;;;;;;;;;;;;;;19.46;50.72;98061.69;6194067;23;19942;-77
2022/06/09 07:56:17;;;;;;;;;;;;;;;20.22;49.60;98053.75;6219044;23;19920;-79
2022/06/09 07:58:43;;;;;;;;;;;;;;;20.81;47.41;98060.75;6245034;23;20121;-78
2022/06/09 08:01:10;;;;;;;;;;;;;;;21.30;47.51;98064.56;6218818;23;19920;-78
2022/06/09 08:03:36;;;;;;;;;;;;;;;21.52;45.40;98056.03;6219444;23;19919;-78
2022/06/09 08:06:02;;;;;;;;;;;;;;;21.16;46.54;98057.56;6193785;23;20253;-78
2022/06/09 08:08:27;;;;;;;;;;;;;;;20.99;46.65;98060.00;6193963;23;20057;-78
2022/06/09 08:10:53;;;;;;;;;;;;;;;20.78;46.84;98049.50;6218254;23;20321;-78
2022/06/09 08:13:19;;;;;;;;;;;;;;;21.29;46.06;98062.91;6193450;23;19920;-79
2022/06/09 08:15:45;;;;;;;;;;;;;;;21.46;45.35;98068.63;6218445;23;19919;-76
2022/06/09 08:18:11;;;;;;;;;;;;;;;20.78;46.52;98066.63;6193697;23;20275;-77
2022/06/09 08:20:38;;;;;;;;;;;;;;;20.45;48.28;98071.41;6193717;23;20010;-78
2022/06/09 08:23:09;;;;;;;;;;;;;;;19.88;49.11;98084.78;6219017;23;19919;-77
2022/06/09 08:25:35;;;;;;;;;;;;;;;19.59;50.08;98076.03;6194127;23;20002;-79
2022/06/09 08:28:03;;;;;;;;;;;;;;;19.74;49.99;98081.25;6193770;23;19919;-78
2022/06/09 08:30:29;;;;;;;;;;;;;;;19.90;50.02;98077.28;6192915;23;19919;-78
2022/06/09 08:32:57;;;;;;;;;;;;;;;20.34;49.27;98072.91;6245814;23;19924;-78
2022/06/09 08:35:23;;;;;;;;;;;;;;;20.15;48.03;98096.38;6245725;23;19919;-76
2022/06/09 08:37:51;;;;;;;;;;;;;;;20.15;48.26;98082.81;6245215;23;19926;-78
2022/06/09 08:40:20;;;;;;;;;;;;;;;20.39;48.28;98070.41;6245291;23;20370;-78
2022/06/09 08:43:01;;;;;;;;;;;;;;;21.01;47.99;98076.91;6136450;23;1896492;-79
2022/06/09 08:45:31;;;;;;;;;;;;;;;21.21;47.95;98081.34;6244926;23;20340;-76
2022/06/09 08:47:59;;;;;;;;;;;;;;;21.27;46.53;98094.88;6194988;23;19949;-79
2022/06/09 08:50:42;;;;;;;;;;;;;;;20.67;48.35;98096.38;6170410;23;19973;-79
2022/06/09 08:53:08;;;;;;;;;;;;;;;20.21;48.90;98103.66;6246771;23;20374;-79
2022/06/09 08:55:40;;;;;;;;;;;;;;;20.13;49.84;98087.63;6219932;23;19920;-80
2022/06/09 08:58:18;;;;;;;;;;;;;;;20.04;50.05;98097.84;6194346;23;19919;-79
2022/06/09 09:00:49;;;;;;;;;;;;;;;19.74;51.59;98112.97;6245100;23;20343;-78
2022/06/09 09:03:18;;;;;;;;;;;;;;;19.21;53.41;98104.84;6219987;23;19920;-79
2022/06/09 09:05:50;;;;;;;;;;;;;;;19.46;54.03;98115.91;6219472;23;19926;-78
2022/06/09 09:08:16;;;;;;;;;;;;;;;19.75;53.16;98110.06;6194363;23;19926;-78
2022/06/09 09:10:51;;;;;;;;;;;;;;;19.27;53.84;98112.97;6219527;23;19954;-79
2022/06/09 09:13:22;;;;;;;;;;;;;;;19.13;54.78;98116.72;6244386;23;19934;-79
2022/06/09 09:16:08;;;;;;;;;;;;;;;19.06;55.84;98111.28;6195076;23;20002;-77
2022/06/09 09:18:42;;;;;;;;;;;;;;;19.38;55.09;98120.47;6245782;23;19920;-77
2022/06/09 09:21:07;;;;;;;;;;;;;;;19.20;55.12;98117.56;6219215;23;19926;-79
2022/06/09 09:23:51;;;;;;;;;;;;;;;19.09;55.88;98110.06;6219604;23;19920;-78
2022/06/09 09:26:27;;;;;;;;;;;;;;;19.14;56.44;98112.97;6219267;23;20340;-77
2022/06/09 09:29:09;;;;;;;;;;;;;;;18.59;59.23;98123.06;6194040;23;20412;-77
2022/06/09 09:31:38;;;;;;;;;;;;;;;17.77;60.41;98119.34;6219187;23;19926;-79
2022/06/09 09:34:04;;;;;;;;;;;;;;;17.57;61.55;98123.78;6219304;23;20336;-78
2022/06/09 09:36:37;;;;;;;;;;;;;;;17.92;61.27;98130.03;6220149;23;19958;-79
2022/06/09 09:39:30;;;;;;;;;;;;;;;18.28;59.86;98128.97;6194814;23;19919;-78
2022/06/09 09:42:07;;;;;;;;;;;;;;;18.00;59.39;98131.75;6232113;23;19920;-77
2022/06/09 09:44:33;;;;;;;;;;;;;;;17.95;60.55;98129.66;6218942;23;19924;-80
2022/06/09 09:47:00;;;;;;;;;;;;;;;18.14;60.35;98134.31;6219561;23;19926;-79
2022/06/09 09:49:29;;;;;;;;;;;;;;;18.21;60.56;98134.38;6218909;23;19919;-76
2022/06/09 09:51:56;;;;;;;;;;;;;;;18.39;59.70;98137.38;6245907;23;19965;-77
2022/06/09 09:54:30;;;;;;;;;;;;;;;18.53;59.24;98138.22;6246442;23;19950;-77
2022/06/09 09:57:06;;;;;;;;;;;;;;;18.83;58.13;98138.75;6194798;23;19973;-77
2022/06/09 09:59:41;;;;;;;;;;;;;;;19.17;57.65;98139.66;6193754;23;20438;-77
2022/06/09 10:08:35;;;;;;;;;;;;;;;20.04;55.86;98124.97;6194231;23;19926;-78
2022/06/09 10:11:53;;;;;;;;;;;;;;;20.66;53.42;98122.69;6246245;23;19919;-78
2022/06/09 10:13:49;;;;;;;;;;;;;;;20.41;51.49;98128.00;6219124;23;19920;-78
2022/06/09 10:16:15;;;;;;;;;;;;;;;20.27;52.11;98134.50;6219403;23;20007;-79
2022/06/09 10:18:43;;;;;;;;;;;;;;;20.07;52.93;98135.41;6219360;23;19970;-84
2022/06/09 10:21:10;;;;;;;;;;;;;;;20.36;53.11;98139.50;6194331;23;19919;-81
2022/06/09 10:23:47;;;;;;;;;;;;;;;20.07;51.96;98132.69;6218782;23;20319;-76
2022/06/09 10:26:19;;;;;;;;;;;;;;;20.85;51.42;98137.22;6194012;23;20355;-86
2022/06/09 10:29:00;;;;;;;;;;;;;;;20.91;50.38;98149.94;6194956;23;19919;-85
2022/06/09 10:31:38;;;;;;;;;;;;;;;20.01;52.86;98157.13;6245726;23;19963;-77
2022/06/09 10:34:12;;;;;;;;;;;;;;;20.16;53.07;98154.16;6219677;23;19926;-81
2022/06/09 10:36:48;;;;;;;;;;;;;;;19.60;54.86;98167.19;6218716;23;19927;-79
2022/06/09 10:39:26;;;;;;;;;;;;;;;18.69;57.57;98183.91;6193604;23;19923;-80
2022/06/09 10:41:59;;;;;;;;;;;;;;;18.23;58.26;98180.13;6219964;23;20248;-80
2022/06/09 10:44:28;;;;;;;;;;;;;;;18.08;58.18;98178.38;6220163;23;20343;-80
2022/06/09 10:55:35;;;;;;;;;;;;;;;17.02;66.01;98182.09;6194851;23;19919;-79
2022/06/09 10:58:01;;;;;;;;;;;;;;;16.73;67.39;98190.06;6168755;23;19923;-79
2022/06/09 11:00:34;;;;;;;;;;;;;;;16.82;67.51;98195.38;6221402;23;19962;-80
2022/06/09 11:03:02;;;;;;;;;;;;;;;16.74;68.64;98191.75;6195821;23;19950;-80
2022/06/09 11:05:43;;;;;;;;;;;;;;;16.79;69.11;98180.41;6195844;23;19926;-79
2022/06/09 11:08:16;;;;;;;;;;;;;;;17.43;68.53;98180.41;6245206;23;19920;-78
2022/06/09 11:10:54;;;;;;;;;;;;;;;17.89;66.26;98179.09;6194392;23;20322;-81
2022/06/09 11:13:20;;;;;;;;;;;;;;;18.29;64.65;98174.78;6194633;23;19919;-82
2022/06/09 11:16:04;;;;;;;;;;;;;;;18.59;63.64;98179.91;6219983;23;19996;-82
2022/06/09 11:18:35;;;;;;;;;;;;;;;18.75;63.07;98173.31;6194697;23;19919;-85
2022/06/09 11:21:27;;;;;;;;;;;;;;;18.92;62.49;98163.78;6219738;23;19926;-83
2022/06/09 11:24:02;;;;;;;;;;;;;;;19.14;61.85;98181.53;6239652;23;19920;-82
2022/06/09 11:26:40;;;;;;;;;;;;;;;19.56;60.66;98182.19;6195991;23;20279;-82
2022/06/09 11:29:24;;;;;;;;;;;;;;;19.50;59.68;98174.88;6247767;23;19919;-81
2022/06/09 11:32:04;;;;;;;;;;;;;;;19.82;58.68;98180.53;6219229;23;19978;-81
2022/06/09 11:34:43;;;;;;;;;;;;;;;20.22;57.86;98175.03;6245933;23;19927;-80
2022/06/09 11:37:11;;;;;;;;;;;;;;;20.23;55.07;98179.41;6194714;23;20055;-81
2022/06/09 11:39:43;;;;;;;;;;;;;;;20.46;53.59;98182.47;6219186;23;19979;-81
2022/06/09 11:42:16;;;;;;;;;;;;;;;20.91;52.06;98176.22;6219180;23;19926;-81
2022/06/09 11:44:42;;;;;;;;;;;;;;;21.01;51.49;98182.84;6219202;23;20305;-80
2022/06/09 11:47:19;;;;;;;;;;;;;;;21.22;51.15;98181.69;6193968;23;20024;-81
2022/06/09 11:49:44;;;;;;;;;;;;;;;21.39;50.40;98186.63;6244639;23;19928;-81
2022/06/09 11:52:13;;;;;;;;;;;;;;;21.14;50.65;98184.69;6244405;23;20245;-79
2022/06/09 11:54:39;;;;;;;;;;;;;;;21.37;50.14;98194.19;6246058;23;19926;-80
2022/06/09 11:57:27;;;;;;;;;;;;;;;21.09;49.79;98185.31;6193946;23;19919;-82
2022/06/09 11:59:59;;;;;;;;;;;;;;;20.37;51.99;98190.00;6180435;23;20002;-82
2022/06/09 12:02:40;;;;;;;;;;;;;;;20.29;52.79;98186.72;6194350;23;19942;-81
2022/06/09 12:05:32;;;;;;;;;;;;;;;20.00;54.17;98183.41;6219407;23;19926;-81
2022/06/09 12:07:58;;;;;;;;;;;;;;;20.36;54.44;98184.81;6214582;23;19990;-81
2022/06/09 12:10:33;;;;;;;;;;;;;;;21.05;52.21;98185.97;6218892;23;19919;-81
2022/06/09 12:13:06;;;;;;;;;;;;;;;21.70;50.85;98183.88;6219418;23;20263;-81
2022/06/09 12:15:33;;;;;;;;;;;;;;;21.73;51.00;98188.03;6193981;23;20252;-81
2022/06/09 12:18:23;;;;;;;;;;;;;;;22.34;48.71;98191.84;6193916;23;20320;-79
2022/06/09 12:20:49;;;;;;;;;;;;;;;22.16;48.22;98193.50;6194015;23;19919;-81
2022/06/09 12:23:21;;;;;;;;;;;;;;;21.93;48.54;98188.69;6194063;23;20354;-79
2022/06/09 12:26:06;;;;;;;;;;;;;;;21.70;48.89;98193.91;6218891;23;19962;-81
2022/06/09 12:28:43;;;;;;;;;;;;;;;21.83;50.05;98194.63;6193588;23;19920;-80
2022/06/09 12:31:10;;;;;;;;;;;;;;;22.82;48.39;98191.88;6169087;23;19919;-83
2022/06/09 12:33:37;;;;;;;;;;;;;;;22.56;47.46;98198.50;6169983;23;19930;-82
2022/06/09 12:36:09;;;;;;;;;;;;;;;21.63;49.15;98198.59;6194559;23;19953;-81
2022/06/09 12:38:35;;;;;;;;;;;;;;;21.14;49.95;98200.13;6194823;23;19961;-81
2022/06/09 12:41:16;;;;;;;;;;;;;;;21.10;50.99;98189.72;6219591;23;19919;-81
2022/06/09 12:43:43;;;;;;;;;;;;;;;21.65;49.81;98202.72;6246446;23;19985;-82
2022/06/09 12:46:15;;;;;;;;;;;;;;;22.81;48.53;98189.41;6194357;23;19920;-80
2022/06/09 12:48:41;;;;;;;;;;;;;;;23.97;45.72;98197.13;6194141;23;20248;-82
2022/06/09 12:51:15;;;;;;;;;;;;;;;25.08;43.39;98188.00;6218520;23;20034;-80
2022/06/09 12:53:47;;;;;;;;;;;;;;;24.17;43.66;98204.09;6218786;23;19920;-81
2022/06/09 12:56:22;;;;;;;;;;;;;;;23.15;45.54;98213.28;6195775;23;20002;-83
2022/06/09 12:58:50;;;;;;;;;;;;;;;21.55;50.28;98232.28;6165200;23;20260;-81
2022/06/09 13:01:19;;;;;;;;;;;;;;;20.11;54.03;98247.88;6189820;23;19920;-80
2022/06/09 13:03:47;;;;;;;;;;;;;;;18.71;59.92;98243.25;6214522;23;19999;-82
2022/06/09 13:06:21;;;;;;;;;;;;;;;18.05;64.75;98249.09;6164154;23;19927;-83
2022/06/09 13:08:48;;;;;;;;;;;;;;;17.27;66.36;98234.69;6214440;23;20353;-80
2022/06/09 13:14:20;;;;;;;;;;;;;;;16.87;70.99;98230.72;6164182;23;19992;-78
2022/06/09 13:16:48;;;;;;;;;;;;;;;16.94;71.16;98228.94;6214064;23;20261;-77
2022/06/09 13:19:19;;;;;;;;;;;;;;;16.91;72.35;98232.00;6188854;23;19955;-81
2022/06/09 13:21:46;;;;;;;;;;;;;;;17.21;74.17;98232.75;6213959;23;19919;-78
2022/06/09 13:24:15;;;;;;;;;;;;;;;17.33;73.83;98233.06;6212553;23;19920;-75
2022/06/09 13:26:43;;;;;;;;;;;;;;;17.45;73.83;98250.44;6162275;23;19973;-79